Time;durP1;ratioP1;P1;durP2;ratioP2;P2;SDS_P1;SDS_P2;PMS_P1;PMS_P2;Temp;Humidity;BMP_temperature;BMP_pressure;BME280_temperature;BME280_humidity;BME280_pressure;Samples;Min_cycle;Max_cycle;Signal;HPM_P1;HPM_P2
2024/01/25 00:01:28;;;;;;;;;;;7.50;99.90;;;;;;5098989;28;20366;-81
2024/01/25 00:03:54;;;;;;;;;;;7.80;99.90;;;;;;5120762;27;20394;-83
2024/01/25 00:06:20;;;;;;;;;;;7.50;99.90;;;;;;5111269;27;20015;-82
2024/01/25 00:08:46;;;;;;;;;;;7.50;99.90;;;;;;5112595;27;20397;-83
2024/01/25 00:11:12;;;;;;;;;;;7.40;99.90;;;;;;5130814;27;19931;-82
2024/01/25 00:13:38;;;;;;;;;;;7.40;99.90;;;;;;5112922;27;19923;-83
2024/01/25 00:16:04;;;;;;;;;;;7.50;99.90;;;;;;5107465;27;19927;-82
2024/01/25 00:18:29;;;;;;;;;;;7.40;99.90;;;;;;5130131;27;20436;-82
2024/01/25 00:20:55;;;;;;;;;;;7.40;99.90;;;;;;5129897;27;19941;-83
2024/01/25 00:23:20;;;;;;;;;;;7.30;99.90;;;;;;5132944;27;19932;-83
2024/01/25 00:25:46;;;;;;;;;;;7.30;99.90;;;;;;5129292;27;20398;-84
2024/01/25 00:28:12;;;;;;;;;;;7.20;99.90;;;;;;5111621;27;20426;-83
2024/01/25 00:30:38;;;;;;;;;;;7.20;99.90;;;;;;5105007;28;19951;-82
2024/01/25 00:33:04;;;;;;;;;;;7.20;99.90;;;;;;5091067;28;20681;-84
2024/01/25 00:35:30;;;;;;;;;;;7.20;99.90;;;;;;5093139;28;20025;-83
2024/01/25 00:37:55;;;;;;;;;;;7.10;99.90;;;;;;5109949;27;19939;-83
2024/01/25 00:40:21;;;;;;;;;;;7.10;99.90;;;;;;5118691;27;19951;-84
2024/01/25 00:42:53;;;;;;;;;;;7.10;99.90;;;;;;5102701;27;19927;-83
2024/01/25 00:45:19;;;;;;;;;;;7.00;99.90;;;;;;5110873;27;19960;-83
2024/01/25 00:47:45;;;;;;;;;;;7.00;99.90;;;;;;5110859;28;19986;-84
2024/01/25 00:50:11;;;;;;;;;;;7.00;99.90;;;;;;5129800;27;19963;-83
2024/01/25 00:52:37;;;;;;;;;;;6.80;99.90;;;;;;5131091;27;19930;-83
2024/01/25 00:55:03;;;;;;;;;;;7.20;99.90;;;;;;5109893;28;20017;-82
2024/01/25 00:57:28;;;;;;;;;;;7.00;99.90;;;;;;5111482;28;19923;-82
2024/01/25 00:59:55;;;;;;;;;;;7.00;99.90;;;;;;5128509;27;19923;-81
2024/01/25 01:02:21;;;;;;;;;;;6.90;99.90;;;;;;5110433;27;19924;-82
2024/01/25 01:04:47;;;;;;;;;;;6.90;99.90;;;;;;5127652;27;19992;-82
2024/01/25 01:07:12;;;;;;;;;;;6.80;99.90;;;;;;5110775;28;19927;-83
2024/01/25 01:09:38;;;;;;;;;;;6.80;99.90;;;;;;5111748;27;19928;-82
2024/01/25 01:12:04;;;;;;;;;;;6.80;99.90;;;;;;5115055;27;19928;-82
2024/01/25 01:14:29;;;;;;;;;;;6.80;99.90;;;;;;5114039;27;20017;-83
2024/01/25 01:16:55;;;;;;;;;;;6.70;99.90;;;;;;5113715;27;20141;-83
2024/01/25 01:19:20;;;;;;;;;;;6.70;99.90;;;;;;5115394;27;19931;-82
2024/01/25 01:21:46;;;;;;;;;;;6.70;99.90;;;;;;5112065;27;20334;-83
2024/01/25 01:24:12;;;;;;;;;;;6.70;99.90;;;;;;5105708;27;19927;-80
2024/01/25 01:26:37;;;;;;;;;;;6.80;99.90;;;;;;5102817;27;19938;-82
2024/01/25 01:29:03;;;;;;;;;;;6.60;99.90;;;;;;5133704;27;20000;-84
2024/01/25 01:31:28;;;;;;;;;;;6.60;99.90;;;;;;5134047;27;19923;-83
2024/01/25 01:33:54;;;;;;;;;;;7.40;99.90;;;;;;5114915;27;19923;-83
2024/01/25 01:36:20;;;;;;;;;;;7.00;99.90;;;;;;5115620;27;19988;-83
2024/01/25 01:38:45;;;;;;;;;;;6.30;99.90;;;;;;5115774;27;19923;-83
2024/01/25 01:41:12;;;;;;;;;;;6.40;99.90;;;;;;5115878;27;19924;-82
2024/01/25 01:43:38;;;;;;;;;;;6.50;99.90;;;;;;5115341;27;19924;-82
2024/01/25 01:46:10;;;;;;;;;;;6.60;99.90;;;;;;5109997;27;20371;-84
2024/01/25 01:48:36;;;;;;;;;;;6.60;99.90;;;;;;5110363;27;19923;-83
2024/01/25 01:51:02;;;;;;;;;;;6.60;99.90;;;;;;5132162;27;19972;-82
2024/01/25 01:53:28;;;;;;;;;;;6.60;99.90;;;;;;5124231;27;19931;-83
2024/01/25 01:55:53;;;;;;;;;;;6.60;99.90;;;;;;5111698;27;19930;-82
2024/01/25 01:58:20;;;;;;;;;;;6.80;99.90;;;;;;5105348;27;19923;-82
2024/01/25 02:00:48;;;;;;;;;;;6.60;99.90;;;;;;5112393;27;19919;-84
2024/01/25 02:03:13;;;;;;;;;;;6.50;99.90;;;;;;5113494;27;19976;-84
2024/01/25 02:05:39;;;;;;;;;;;6.40;99.90;;;;;;5109393;27;20332;-83
2024/01/25 02:08:05;;;;;;;;;;;6.50;99.90;;;;;;5095389;28;20359;-84
2024/01/25 02:10:30;;;;;;;;;;;6.50;99.90;;;;;;5094384;27;19935;-86
2024/01/25 02:12:56;;;;;;;;;;;6.20;99.90;;;;;;5101824;28;19927;-84
2024/01/25 02:15:21;;;;;;;;;;;6.10;99.90;;;;;;5109207;28;19988;-82
2024/01/25 02:17:47;;;;;;;;;;;6.40;99.90;;;;;;5111112;28;19923;-84
2024/01/25 02:20:12;;;;;;;;;;;6.40;99.90;;;;;;5110722;28;19923;-85
2024/01/25 02:22:38;;;;;;;;;;;6.50;99.90;;;;;;5110921;28;20049;-83
2024/01/25 02:25:04;;;;;;;;;;;6.90;99.90;;;;;;5112637;28;20276;-86
2024/01/25 02:27:29;;;;;;;;;;;6.40;99.90;;;;;;5102114;28;19920;-84
2024/01/25 02:29:55;;;;;;;;;;;6.80;99.90;;;;;;5107612;28;20016;-82
2024/01/25 02:32:20;;;;;;;;;;;6.70;99.90;;;;;;5108545;28;19924;-85
2024/01/25 02:34:46;;;;;;;;;;;6.40;99.90;;;;;;5096385;28;20393;-83
2024/01/25 02:37:12;;;;;;;;;;;6.80;99.90;;;;;;5107332;28;19928;-83
2024/01/25 02:39:38;;;;;;;;;;;6.70;99.90;;;;;;5110189;28;19932;-82
2024/01/25 02:42:03;;;;;;;;;;;6.80;99.90;;;;;;5109850;28;19928;-85
2024/01/25 02:44:29;;;;;;;;;;;6.40;99.90;;;;;;5107006;28;20395;-84
2024/01/25 02:46:55;;;;;;;;;;;6.10;99.90;;;;;;5089765;28;19931;-84
2024/01/25 02:49:20;;;;;;;;;;;6.10;99.90;;;;;;5109429;28;19951;-85
2024/01/25 02:51:46;;;;;;;;;;;6.40;99.90;;;;;;5112362;28;19976;-84
2024/01/25 02:54:11;;;;;;;;;;;6.70;99.90;;;;;;5109176;28;20355;-84
2024/01/25 02:56:37;;;;;;;;;;;6.30;99.90;;;;;;5106316;28;20310;-85
2024/01/25 02:59:02;;;;;;;;;;;6.80;99.90;;;;;;5108007;28;19924;-83
2024/01/25 03:01:28;;;;;;;;;;;6.30;99.90;;;;;;5103323;28;19934;-84
2024/01/25 03:03:53;;;;;;;;;;;6.20;99.90;;;;;;5095354;27;19977;-85
2024/01/25 03:06:19;;;;;;;;;;;6.40;99.90;;;;;;5092562;28;19928;-85
2024/01/25 03:08:45;;;;;;;;;;;6.40;99.90;;;;;;5099896;28;20626;-83
2024/01/25 03:11:10;;;;;;;;;;;6.90;99.90;;;;;;5099656;28;19930;-84
2024/01/25 03:13:36;;;;;;;;;;;6.20;99.90;;;;;;5127015;27;19923;-84
2024/01/25 03:16:02;;;;;;;;;;;6.90;99.90;;;;;;5113137;27;20375;-85
2024/01/25 03:18:27;;;;;;;;;;;7.00;99.90;;;;;;5114251;27;19985;-84
2024/01/25 03:20:53;;;;;;;;;;;6.60;99.90;;;;;;5114032;27;20751;-83
2024/01/25 03:23:18;;;;;;;;;;;6.70;99.90;;;;;;5112679;27;19931;-83
2024/01/25 03:25:44;;;;;;;;;;;6.70;99.90;;;;;;5112024;27;19974;-84
2024/01/25 03:28:11;;;;;;;;;;;6.40;99.90;;;;;;5111548;27;19958;-84
2024/01/25 03:30:37;;;;;;;;;;;5.90;99.90;;;;;;5095065;28;19924;-82
2024/01/25 03:33:02;;;;;;;;;;;6.30;99.90;;;;;;5092250;28;20264;-84
2024/01/25 03:35:28;;;;;;;;;;;6.10;99.90;;;;;;5094660;28;19931;-83
2024/01/25 03:37:53;;;;;;;;;;;6.00;99.90;;;;;;5091683;28;20375;-84
2024/01/25 03:40:19;;;;;;;;;;;6.00;99.90;;;;;;5104980;27;19944;-85
2024/01/25 03:42:44;;;;;;;;;;;6.00;99.90;;;;;;5130196;27;20061;-84
2024/01/25 03:45:10;;;;;;;;;;;6.00;99.90;;;;;;5131394;27;19930;-83
2024/01/25 03:47:35;;;;;;;;;;;7.40;99.90;;;;;;5113168;27;19976;-84
2024/01/25 03:50:01;;;;;;;;;;;6.80;99.90;;;;;;5111398;27;19935;-83
2024/01/25 03:52:29;;;;;;;;;;;5.90;99.90;;;;;;5100935;28;19924;-85
2024/01/25 03:54:55;;;;;;;;;;;5.90;99.90;;;;;;5093814;27;19938;-83
2024/01/25 03:57:21;;;;;;;;;;;5.90;99.90;;;;;;5103699;28;19924;-84
2024/01/25 03:59:46;;;;;;;;;;;5.90;99.90;;;;;;5099729;27;20340;-84
2024/01/25 04:02:12;;;;;;;;;;;5.80;99.90;;;;;;5110411;27;19970;-84
2024/01/25 04:04:37;;;;;;;;;;;5.80;99.90;;;;;;5104301;27;19930;-83
2024/01/25 04:07:03;;;;;;;;;;;5.80;99.90;;;;;;5129224;27;19939;-84
2024/01/25 04:09:28;;;;;;;;;;;5.80;99.90;;;;;;5113144;27;19962;-84
2024/01/25 04:11:55;;;;;;;;;;;5.70;99.90;;;;;;5110426;27;19927;-83
2024/01/25 04:14:21;;;;;;;;;;;5.70;99.90;;;;;;5112599;27;19924;-83
2024/01/25 04:16:46;;;;;;;;;;;5.70;99.90;;;;;;5108010;27;19976;-83
2024/01/25 04:19:12;;;;;;;;;;;5.70;99.90;;;;;;5111577;27;19968;-83
2024/01/25 04:21:38;;;;;;;;;;;5.70;99.90;;;;;;5109346;27;20949;-83
2024/01/25 04:24:04;;;;;;;;;;;5.60;99.90;;;;;;5096548;27;19927;-83
2024/01/25 04:26:29;;;;;;;;;;;5.60;99.90;;;;;;5094699;28;19935;-84
2024/01/25 04:28:55;;;;;;;;;;;5.80;99.90;;;;;;5104778;27;20028;-84
2024/01/25 04:31:20;;;;;;;;;;;5.70;99.90;;;;;;5106228;27;19928;-83
2024/01/25 04:33:46;;;;;;;;;;;5.60;99.90;;;;;;5109193;27;19923;-82
2024/01/25 04:36:12;;;;;;;;;;;5.60;99.90;;;;;;5112170;27;19928;-84
2024/01/25 04:38:37;;;;;;;;;;;5.60;99.90;;;;;;5101173;28;19931;-82
2024/01/25 04:41:03;;;;;;;;;;;5.50;99.90;;;;;;5109256;27;19927;-83
2024/01/25 04:43:29;;;;;;;;;;;5.60;99.90;;;;;;5111223;27;19931;-84
2024/01/25 04:45:55;;;;;;;;;;;5.90;99.90;;;;;;5110392;27;19931;-84
2024/01/25 04:48:20;;;;;;;;;;;5.90;99.90;;;;;;5109125;27;20261;-83
2024/01/25 04:50:46;;;;;;;;;;;5.50;99.90;;;;;;5091614;28;20371;-84
2024/01/25 04:53:11;;;;;;;;;;;5.50;99.90;;;;;;5096325;28;20768;-83
2024/01/25 04:55:37;;;;;;;;;;;5.50;99.90;;;;;;5108350;28;19972;-84
2024/01/25 04:58:02;;;;;;;;;;;5.40;99.90;;;;;;5105510;27;20359;-84
2024/01/25 05:00:28;;;;;;;;;;;5.50;99.90;;;;;;5110734;28;19927;-84
2024/01/25 05:02:53;;;;;;;;;;;5.70;99.90;;;;;;5119294;28;19988;-82
2024/01/25 05:05:19;;;;;;;;;;;5.50;99.90;;;;;;5122360;28;19984;-82
2024/01/25 05:07:44;;;;;;;;;;;5.50;99.90;;;;;;5103975;28;19926;-83
2024/01/25 05:10:10;;;;;;;;;;;5.50;99.90;;;;;;5109250;28;19930;-83
2024/01/25 05:12:36;;;;;;;;;;;5.40;99.90;;;;;;5104428;27;19963;-83
2024/01/25 05:15:01;;;;;;;;;;;5.40;99.90;;;;;;5098320;28;20002;-83
2024/01/25 05:17:27;;;;;;;;;;;5.50;99.90;;;;;;5109629;28;19928;-83
2024/01/25 05:19:52;;;;;;;;;;;5.20;99.90;;;;;;5111330;28;19926;-83
2024/01/25 05:22:18;;;;;;;;;;;5.50;99.90;;;;;;5114518;28;19935;-84
2024/01/25 05:24:43;;;;;;;;;;;6.20;99.90;;;;;;5110353;28;20622;-83
2024/01/25 05:27:09;;;;;;;;;;;5.60;99.90;;;;;;5111218;27;20270;-83
2024/01/25 05:29:34;;;;;;;;;;;6.00;99.90;;;;;;5101600;28;19923;-84
2024/01/25 05:32:00;;;;;;;;;;;5.30;99.90;;;;;;5116467;28;20577;-84
2024/01/25 05:34:25;;;;;;;;;;;5.40;99.90;;;;;;5111585;28;20568;-84
2024/01/25 05:36:51;;;;;;;;;;;5.30;99.90;;;;;;5124255;28;19963;-84
2024/01/25 05:39:17;;;;;;;;;;;6.00;99.90;;;;;;5120858;27;19924;-83
2024/01/25 05:41:44;;;;;;;;;;;5.00;99.90;;;;;;5096942;28;20461;-84
2024/01/25 05:44:11;;;;;;;;;;;6.00;99.90;;;;;;5109361;28;20006;-85
2024/01/25 05:46:36;;;;;;;;;;;5.50;99.90;;;;;;5108764;28;19972;-84
2024/01/25 05:49:02;;;;;;;;;;;5.60;99.90;;;;;;5106316;28;19923;-85
2024/01/25 05:51:27;;;;;;;;;;;5.20;99.90;;;;;;5126001;28;19976;-84
2024/01/25 05:53:53;;;;;;;;;;;5.30;99.90;;;;;;5129572;27;19930;-84
2024/01/25 05:56:18;;;;;;;;;;;5.20;99.90;;;;;;5112263;27;19930;-84
2024/01/25 05:58:44;;;;;;;;;;;5.80;99.90;;;;;;5133126;27;19923;-83
2024/01/25 06:01:10;;;;;;;;;;;6.50;99.90;;;;;;5112783;27;19924;-84
2024/01/25 06:03:35;;;;;;;;;;;5.20;99.90;;;;;;5113715;27;20346;-85
2024/01/25 06:06:01;;;;;;;;;;;5.20;99.90;;;;;;5107194;27;19924;-85
2024/01/25 06:08:26;;;;;;;;;;;5.20;99.90;;;;;;5104877;27;19928;-85
2024/01/25 06:10:52;;;;;;;;;;;5.10;99.90;;;;;;5111862;27;19938;-83
2024/01/25 06:13:17;;;;;;;;;;;5.20;99.90;;;;;;5112493;27;20002;-85
2024/01/25 06:15:43;;;;;;;;;;;5.20;99.90;;;;;;5097302;28;19924;-83
2024/01/25 06:18:08;;;;;;;;;;;5.20;99.90;;;;;;5105056;28;19935;-86
2024/01/25 06:20:34;;;;;;;;;;;5.20;99.90;;;;;;5100187;28;19949;-84
2024/01/25 06:22:59;;;;;;;;;;;5.60;99.90;;;;;;5113232;27;19927;-84
2024/01/25 06:25:28;;;;;;;;;;;5.10;99.90;;;;;;5113247;27;20031;-84
2024/01/25 06:27:54;;;;;;;;;;;5.40;99.90;;;;;;5110888;27;20024;-83
2024/01/25 06:30:22;;;;;;;;;;;5.20;99.90;;;;;;5112736;27;19938;-82
2024/01/25 06:32:47;;;;;;;;;;;5.60;99.90;;;;;;5113799;27;19923;-85
2024/01/25 06:35:14;;;;;;;;;;;5.10;99.90;;;;;;5103314;27;20419;-83
2024/01/25 06:37:39;;;;;;;;;;;5.40;99.90;;;;;;5107774;27;20400;-83
2024/01/25 06:40:05;;;;;;;;;;;4.90;99.90;;;;;;5108956;27;19961;-88
2024/01/25 06:42:31;;;;;;;;;;;5.10;99.90;;;;;;5108114;27;19927;-82
2024/01/25 06:44:56;;;;;;;;;;;5.10;99.90;;;;;;5110112;27;19931;-71
2024/01/25 06:47:22;;;;;;;;;;;5.10;99.90;;;;;;5112776;27;19924;-70
2024/01/25 06:49:51;;;;;;;;;;;5.10;99.90;;;;;;5112835;27;20434;-71
2024/01/25 06:52:17;;;;;;;;;;;5.10;99.90;;;;;;5102980;28;20302;-71
2024/01/25 06:54:43;;;;;;;;;;;5.10;99.90;;;;;;5108859;27;19973;-69
2024/01/25 06:57:08;;;;;;;;;;;5.10;99.90;;;;;;5109386;27;20003;-70
2024/01/25 06:59:33;;;;;;;;;;;5.10;99.90;;;;;;5112700;27;20065;-70
2024/01/25 07:02:00;;;;;;;;;;;5.10;99.90;;;;;;5113243;27;19978;-71
2024/01/25 07:04:25;;;;;;;;;;;5.10;99.90;;;;;;5112030;27;20324;-71
2024/01/25 07:06:51;;;;;;;;;;;5.10;99.90;;;;;;5124376;27;19939;-71
2024/01/25 07:09:17;;;;;;;;;;;5.40;99.90;;;;;;5106100;27;19971;-70
2024/01/25 07:11:42;;;;;;;;;;;5.00;99.90;;;;;;5107374;28;21045;-70
2024/01/25 07:14:08;;;;;;;;;;;5.10;99.90;;;;;;5130281;27;19927;-70
2024/01/25 07:16:33;;;;;;;;;;;5.00;99.90;;;;;;5107652;27;20023;-72
2024/01/25 07:18:59;;;;;;;;;;;5.10;99.90;;;;;;5107049;27;19962;-70
2024/01/25 07:21:24;;;;;;;;;;;5.20;99.90;;;;;;5097607;27;20434;-71
2024/01/25 07:23:50;;;;;;;;;;;5.10;99.90;;;;;;5092803;28;19924;-71
2024/01/25 07:26:19;;;;;;;;;;;5.10;99.90;;;;;;5102897;27;20305;-71
2024/01/25 07:28:46;;;;;;;;;;;5.10;99.90;;;;;;5108635;27;19927;-70
2024/01/25 07:31:11;;;;;;;;;;;5.10;99.90;;;;;;5131686;27;20354;-71
2024/01/25 07:33:37;;;;;;;;;;;5.10;99.90;;;;;;5109260;27;20220;-70
2024/01/25 07:36:02;;;;;;;;;;;5.10;99.90;;;;;;5103566;27;19975;-73
2024/01/25 07:38:28;;;;;;;;;;;5.10;99.90;;;;;;5103385;27;19931;-73
2024/01/25 07:40:55;;;;;;;;;;;5.40;99.90;;;;;;5102014;28;19947;-71
2024/01/25 07:43:21;;;;;;;;;;;5.10;99.90;;;;;;5119536;27;19927;-71
2024/01/25 07:45:46;;;;;;;;;;;5.10;99.90;;;;;;5111032;28;20394;-71
2024/01/25 07:48:12;;;;;;;;;;;5.10;99.90;;;;;;5129022;27;20215;-71
2024/01/25 07:50:37;;;;;;;;;;;5.10;99.90;;;;;;5131225;27;19976;-71
2024/01/25 07:53:03;;;;;;;;;;;5.10;99.90;;;;;;5129958;27;19927;-75
2024/01/25 07:55:29;;;;;;;;;;;5.10;99.90;;;;;;5111274;27;20409;-72
2024/01/25 07:57:55;;;;;;;;;;;5.10;99.90;;;;;;5109291;27;20423;-71
2024/01/25 08:00:20;;;;;;;;;;;5.10;99.90;;;;;;5104305;27;19923;-71
2024/01/25 08:02:46;;;;;;;;;;;5.10;99.90;;;;;;5111638;27;19923;-69
2024/01/25 08:05:12;;;;;;;;;;;5.20;99.90;;;;;;5107805;27;19924;-71
2024/01/25 08:07:37;;;;;;;;;;;5.20;99.90;;;;;;5124388;27;20007;-70
2024/01/25 08:10:04;;;;;;;;;;;5.20;99.90;;;;;;5105179;27;19927;-76
2024/01/25 08:12:29;;;;;;;;;;;5.20;99.90;;;;;;5102245;27;19943;-75
2024/01/25 08:14:55;;;;;;;;;;;5.30;99.90;;;;;;5101785;27;20298;-72
2024/01/25 08:17:21;;;;;;;;;;;5.30;99.90;;;;;;5116979;27;19934;-69
2024/01/25 08:19:46;;;;;;;;;;;5.30;99.90;;;;;;5124190;27;19931;-70
2024/01/25 08:22:12;;;;;;;;;;;5.30;99.90;;;;;;5110716;27;19931;-69
2024/01/25 08:24:40;;;;;;;;;;;5.50;99.90;;;;;;5109943;27;20068;-69
2024/01/25 08:27:07;;;;;;;;;;;5.40;99.90;;;;;;5107808;27;19942;-69
2024/01/25 08:29:33;;;;;;;;;;;5.40;99.90;;;;;;5110856;27;20275;-68
2024/01/25 08:31:58;;;;;;;;;;;5.40;99.90;;;;;;5104390;27;19931;-79
2024/01/25 08:34:24;;;;;;;;;;;5.40;99.90;;;;;;5106356;27;19992;-76
2024/01/25 08:36:49;;;;;;;;;;;5.40;99.90;;;;;;5105571;27;19947;-76
2024/01/25 08:39:15;;;;;;;;;;;5.90;99.90;;;;;;5106801;27;20338;-68
2024/01/25 08:41:42;;;;;;;;;;;5.50;99.90;;;;;;5104668;27;20474;-69
2024/01/25 08:44:07;;;;;;;;;;;5.50;99.90;;;;;;5108596;27;20347;-68
2024/01/25 08:46:33;;;;;;;;;;;5.50;99.90;;;;;;5111402;27;20010;-69
2024/01/25 08:48:58;;;;;;;;;;;5.50;99.90;;;;;;5129204;27;20240;-69
2024/01/25 08:51:24;;;;;;;;;;;5.50;99.90;;;;;;5110453;27;19930;-69
2024/01/25 08:53:51;;;;;;;;;;;5.50;99.90;;;;;;5108407;27;20060;-68
2024/01/25 08:56:16;;;;;;;;;;;5.60;99.90;;;;;;5129320;27;19923;-68
2024/01/25 08:58:42;;;;;;;;;;;5.60;99.90;;;;;;5127848;28;19924;-68
2024/01/25 09:01:08;;;;;;;;;;;5.80;99.90;;;;;;5109462;28;19984;-68
2024/01/25 09:03:33;;;;;;;;;;;5.90;99.90;;;;;;5127949;28;20317;-68
2024/01/25 09:06:04;;;;;;;;;;;5.70;99.90;;;;;;5110073;28;20437;-69
2024/01/25 09:08:30;;;;;;;;;;;5.80;99.90;;;;;;5110524;28;20265;-69
2024/01/25 09:10:57;;;;;;;;;;;5.80;99.90;;;;;;5107565;28;20375;-68
2024/01/25 09:13:22;;;;;;;;;;;5.80;99.90;;;;;;5087687;28;19924;-68
2024/01/25 09:15:48;;;;;;;;;;;5.80;99.90;;;;;;5090006;28;20378;-68
2024/01/25 09:18:14;;;;;;;;;;;5.90;99.90;;;;;;5091600;28;20378;-68
2024/01/25 09:20:40;;;;;;;;;;;5.80;99.90;;;;;;5091262;28;19950;-68
2024/01/25 09:23:06;;;;;;;;;;;5.90;99.90;;;;;;5128137;28;19930;-68
2024/01/25 09:25:32;;;;;;;;;;;5.90;99.90;;;;;;5112554;28;19947;-68
2024/01/25 09:27:57;;;;;;;;;;;5.90;99.90;;;;;;5108915;28;19958;-68
2024/01/25 09:30:23;;;;;;;;;;;6.00;99.90;;;;;;5112002;28;19931;-68
2024/01/25 09:32:49;;;;;;;;;;;6.00;99.90;;;;;;5114332;27;19931;-69
2024/01/25 09:35:14;;;;;;;;;;;6.10;99.90;;;;;;5133704;27;19943;-68
2024/01/25 09:37:40;;;;;;;;;;;6.10;99.90;;;;;;5133914;27;19963;-68
2024/01/25 09:40:06;;;;;;;;;;;6.20;99.90;;;;;;5115555;27;20302;-69
2024/01/25 09:42:31;;;;;;;;;;;6.20;99.90;;;;;;5113881;27;19927;-68
2024/01/25 09:44:57;;;;;;;;;;;6.30;99.90;;;;;;5133495;27;20262;-68
2024/01/25 09:47:23;;;;;;;;;;;6.30;99.90;;;;;;5116010;27;20259;-68
2024/01/25 09:49:48;;;;;;;;;;;6.40;99.90;;;;;;5115039;27;19923;-68
2024/01/25 09:52:15;;;;;;;;;;;6.40;99.90;;;;;;5115006;27;19927;-69
2024/01/25 09:54:40;;;;;;;;;;;6.40;99.90;;;;;;5134347;27;19976;-68
2024/01/25 09:57:12;;;;;;;;;;;6.50;99.90;;;;;;5108520;28;19931;-68
2024/01/25 09:59:37;;;;;;;;;;;6.50;99.90;;;;;;5112015;28;20471;-68
2024/01/25 10:02:04;;;;;;;;;;;6.50;99.90;;;;;;5112685;28;20018;-68
2024/01/25 10:04:29;;;;;;;;;;;6.60;99.90;;;;;;5112919;28;19927;-68
2024/01/25 10:06:58;;;;;;;;;;;6.60;99.90;;;;;;5128540;27;20389;-69
2024/01/25 10:09:23;;;;;;;;;;;6.60;99.90;;;;;;5108914;27;19924;-69
2024/01/25 10:11:49;;;;;;;;;;;7.80;99.90;;;;;;5092923;28;20425;-68
2024/01/25 10:14:14;;;;;;;;;;;6.70;99.90;;;;;;5107393;28;19930;-68
2024/01/25 10:16:40;;;;;;;;;;;6.70;99.90;;;;;;5112172;27;20019;-68
2024/01/25 10:19:09;;;;;;;;;;;6.80;99.90;;;;;;5114585;27;20026;-69
2024/01/25 10:21:35;;;;;;;;;;;6.80;99.90;;;;;;5133767;27;19930;-68
2024/01/25 10:24:01;;;;;;;;;;;6.90;99.90;;;;;;5112759;27;20283;-69
2024/01/25 10:26:28;;;;;;;;;;;7.00;99.90;;;;;;5114903;27;19934;-68
2024/01/25 10:28:53;;;;;;;;;;;7.10;99.90;;;;;;5113498;27;19928;-68
2024/01/25 10:31:22;;;;;;;;;;;7.30;99.90;;;;;;5132572;27;19976;-68
2024/01/25 10:33:48;;;;;;;;;;;7.30;99.90;;;;;;5115319;27;20329;-68
2024/01/25 10:36:13;;;;;;;;;;;7.30;99.90;;;;;;5114814;27;19927;-68
2024/01/25 10:38:40;;;;;;;;;;;7.40;99.90;;;;;;5114291;27;19952;-68
2024/01/25 10:41:06;;;;;;;;;;;7.50;99.90;;;;;;5115053;27;19954;-68
2024/01/25 10:43:32;;;;;;;;;;;7.30;99.90;;;;;;5113701;27;19930;-68
2024/01/25 10:45:58;;;;;;;;;;;7.40;99.90;;;;;;5132040;27;20115;-68
2024/01/25 10:48:24;;;;;;;;;;;7.40;99.90;;;;;;5114849;27;19956;-68
2024/01/25 10:50:50;;;;;;;;;;;7.50;99.90;;;;;;5114195;27;19931;-68
2024/01/25 10:53:16;;;;;;;;;;;7.60;99.90;;;;;;5130782;27;19924;-68
2024/01/25 10:55:42;;;;;;;;;;;7.60;99.90;;;;;;5133272;27;19928;-69
2024/01/25 10:58:08;;;;;;;;;;;7.70;99.90;;;;;;5112774;27;20061;-69
2024/01/25 11:00:34;;;;;;;;;;;7.90;99.90;;;;;;5113833;27;20009;-68
2024/01/25 11:03:01;;;;;;;;;;;8.00;99.90;;;;;;5132241;27;19923;-68
2024/01/25 11:05:26;;;;;;;;;;;8.20;99.90;;;;;;5132352;27;19923;-68
2024/01/25 11:07:52;;;;;;;;;;;8.40;99.90;;;;;;5131066;27;20363;-69
2024/01/25 11:10:18;;;;;;;;;;;8.90;99.90;;;;;;5126246;27;19931;-69
2024/01/25 11:13:00;;;;;;;;;;;9.60;99.90;;;;;;5110700;27;19923;-68
2024/01/25 11:15:32;;;;;;;;;;;10.10;99.90;;;;;;5113838;27;19924;-68
2024/01/25 11:17:58;;;;;;;;;;;10.90;99.90;;;;;;5113474;27;20320;-69
2024/01/25 11:20:24;;;;;;;;;;;11.60;99.90;;;;;;5132040;27;19948;-68
2024/01/25 11:22:56;;;;;;;;;;;12.00;99.90;;;;;;5130478;27;19931;-69
2024/01/25 11:25:22;;;;;;;;;;;12.00;99.90;;;;;;5132358;27;19935;-68
2024/01/25 11:27:48;;;;;;;;;;;11.80;99.90;;;;;;5112233;27;20338;-68
2024/01/25 11:30:14;;;;;;;;;;;11.40;99.90;;;;;;5131617;27;20048;-69
2024/01/25 11:32:39;;;;;;;;;;;11.00;99.90;;;;;;5132310;27;20377;-69
2024/01/25 11:35:08;;;;;;;;;;;10.70;99.90;;;;;;5112179;27;20271;-69
2024/01/25 11:37:33;;;;;;;;;;;10.30;99.90;;;;;;5131845;27;19996;-68
2024/01/25 11:39:59;;;;;;;;;;;10.00;99.90;;;;;;5131554;27;20378;-69
2024/01/25 11:42:24;;;;;;;;;;;9.70;99.90;;;;;;5130308;27;19931;-69
2024/01/25 11:44:50;;;;;;;;;;;9.60;99.90;;;;;;5112758;27;19923;-68
2024/01/25 11:47:16;;;;;;;;;;;9.50;99.90;;;;;;5113875;27;19998;-68
2024/01/25 11:49:41;;;;;;;;;;;9.40;99.90;;;;;;5130951;27;19996;-68
2024/01/25 11:52:07;;;;;;;;;;;9.20;99.90;;;;;;5112358;27;19927;-69
2024/01/25 11:54:33;;;;;;;;;;;9.40;99.90;;;;;;5111398;27;19923;-68
2024/01/25 11:56:58;;;;;;;;;;;9.30;99.90;;;;;;5111062;27;20345;-69
2024/01/25 11:59:24;;;;;;;;;;;9.00;99.90;;;;;;5112921;27;19930;-69
2024/01/25 12:01:50;;;;;;;;;;;9.10;99.90;;;;;;5113210;27;20390;-69
2024/01/25 12:04:15;;;;;;;;;;;8.90;99.90;;;;;;5130281;27;19975;-69
2024/01/25 12:06:41;;;;;;;;;;;8.80;99.90;;;;;;5113370;27;19979;-68
2024/01/25 12:09:10;;;;;;;;;;;8.80;99.90;;;;;;5129958;27;19924;-68
2024/01/25 12:11:35;;;;;;;;;;;8.70;99.90;;;;;;5122417;27;19928;-68
2024/01/25 12:14:01;;;;;;;;;;;8.90;99.90;;;;;;5090259;28;20051;-69
2024/01/25 12:16:27;;;;;;;;;;;8.60;99.90;;;;;;5110274;28;20414;-68
2024/01/25 12:18:53;;;;;;;;;;;8.90;99.90;;;;;;5125965;27;20386;-68
2024/01/25 12:21:19;;;;;;;;;;;8.70;99.90;;;;;;5113501;27;19924;-69
2024/01/25 12:23:44;;;;;;;;;;;8.60;99.90;;;;;;5110478;27;19930;-69
2024/01/25 12:26:10;;;;;;;;;;;8.70;99.90;;;;;;5113054;27;20294;-69
2024/01/25 12:28:36;;;;;;;;;;;8.40;99.90;;;;;;5129735;27;19930;-69
2024/01/25 12:31:03;;;;;;;;;;;8.90;99.90;;;;;;5112119;28;19927;-69
2024/01/25 12:33:29;;;;;;;;;;;8.70;99.90;;;;;;5130407;27;19927;-69
2024/01/25 12:35:54;;;;;;;;;;;8.80;99.90;;;;;;5112543;27;19923;-69
2024/01/25 12:38:24;;;;;;;;;;;8.90;99.90;;;;;;5111588;27;19938;-69
2024/01/25 12:40:49;;;;;;;;;;;9.20;99.90;;;;;;5112148;27;20386;-69
2024/01/25 12:43:15;;;;;;;;;;;9.50;99.90;;;;;;5111296;27;19923;-69
2024/01/25 12:45:41;;;;;;;;;;;9.90;99.90;;;;;;5112311;27;19939;-69
2024/01/25 12:48:07;;;;;;;;;;;10.40;99.90;;;;;;5130321;27;19927;-69
2024/01/25 12:50:33;;;;;;;;;;;10.60;99.90;;;;;;5130760;27;19930;-69
2024/01/25 12:52:59;;;;;;;;;;;10.60;99.90;;;;;;5110108;28;20294;-69
2024/01/25 12:55:25;;;;;;;;;;;10.50;99.90;;;;;;5111394;27;19935;-69
2024/01/25 12:57:50;;;;;;;;;;;10.50;99.90;;;;;;5129141;27;19935;-69
2024/01/25 13:00:16;;;;;;;;;;;10.50;99.90;;;;;;5129761;27;19919;-68
2024/01/25 13:02:42;;;;;;;;;;;10.40;99.90;;;;;;5111617;28;20401;-69
2024/01/25 13:05:07;;;;;;;;;;;10.20;99.90;;;;;;5111697;28;19924;-69
2024/01/25 13:07:33;;;;;;;;;;;10.10;99.90;;;;;;5132455;27;19919;-69
2024/01/25 13:09:58;;;;;;;;;;;10.00;99.90;;;;;;5134609;27;19923;-69
2024/01/25 13:12:24;;;;;;;;;;;9.90;99.90;;;;;;5125490;27;19924;-69
2024/01/25 13:14:49;;;;;;;;;;;9.90;99.90;;;;;;5112828;28;19924;-69
2024/01/25 13:17:15;;;;;;;;;;;9.80;99.90;;;;;;5103127;27;19927;-69
2024/01/25 13:19:40;;;;;;;;;;;9.70;99.90;;;;;;5114855;27;19927;-69
2024/01/25 13:22:06;;;;;;;;;;;9.60;99.90;;;;;;5116387;27;20278;-69
2024/01/25 13:24:31;;;;;;;;;;;9.60;99.90;;;;;;5116766;27;19923;-69
2024/01/25 13:26:57;;;;;;;;;;;9.50;99.90;;;;;;5114526;27;19923;-69
2024/01/25 13:29:22;;;;;;;;;;;9.50;99.90;;;;;;5134352;27;19923;-69
2024/01/25 13:31:48;;;;;;;;;;;9.40;99.90;;;;;;5133864;27;19984;-70
2024/01/25 13:34:14;;;;;;;;;;;9.50;99.90;;;;;;5133899;27;20409;-69
2024/01/25 13:36:39;;;;;;;;;;;9.50;99.90;;;;;;5134284;27;19976;-69
2024/01/25 13:39:05;;;;;;;;;;;9.50;99.90;;;;;;5115790;27;20405;-69
2024/01/25 13:41:30;;;;;;;;;;;9.50;99.90;;;;;;5115129;27;19923;-69
2024/01/25 13:43:56;;;;;;;;;;;9.50;99.90;;;;;;5114673;27;19931;-69
2024/01/25 13:46:21;;;;;;;;;;;9.50;99.90;;;;;;5131934;27;19931;-69
2024/01/25 13:48:47;;;;;;;;;;;9.50;99.90;;;;;;5110999;28;20147;-69
2024/01/25 13:51:12;;;;;;;;;;;9.60;99.90;;;;;;5113694;27;19923;-69
2024/01/25 13:53:38;;;;;;;;;;;9.50;99.90;;;;;;5125292;27;20333;-69
2024/01/25 13:56:04;;;;;;;;;;;9.50;99.90;;;;;;5132812;27;20144;-69
2024/01/25 13:58:29;;;;;;;;;;;9.50;99.90;;;;;;5132717;27;19930;-69
2024/01/25 14:00:55;;;;;;;;;;;9.50;99.90;;;;;;5115098;27;19930;-69
2024/01/25 14:03:20;;;;;;;;;;;9.50;99.90;;;;;;5132652;27;20290;-69
2024/01/25 14:05:46;;;;;;;;;;;9.60;99.90;;;;;;5115373;27;19924;-69
2024/01/25 14:08:11;;;;;;;;;;;9.50;99.90;;;;;;5114390;27;20362;-69
2024/01/25 14:10:37;;;;;;;;;;;9.60;99.90;;;;;;5133530;27;19930;-69
2024/01/25 14:13:03;;;;;;;;;;;9.70;99.90;;;;;;5109265;27;19930;-69
2024/01/25 14:15:28;;;;;;;;;;;9.80;99.90;;;;;;5093280;28;20407;-70
2024/01/25 14:17:54;;;;;;;;;;;9.80;99.90;;;;;;5100174;28;19931;-69
2024/01/25 14:20:19;;;;;;;;;;;10.10;99.90;;;;;;5093125;28;19923;-69